Time;durP1;ratioP1;P1;durP2;ratioP2;P2;SDS_P1;SDS_P2;PMS_P1;PMS_P2;Temp;Humidity;BMP_temperature;BMP_pressure;BME280_temperature;BME280_humidity;BME280_pressure;Samples;Min_cycle;Max_cycle;Signal;HPM_P1;HPM_P2
2023/05/20 00:01:16;;;;;;;;;7.67;5.00;;;;;;;;5058044;28;45395;-78
2023/05/20 00:03:41;;;;;;;;;5.00;5.00;;;;;;;;5057822;28;46158;-78
2023/05/20 00:06:07;;;;;;;;;4.00;4.00;;;;;;;;5057917;28;45357;-78
2023/05/20 00:08:32;;;;;;;;;3.00;3.00;;;;;;;;5058037;28;45373;-78
2023/05/20 00:10:57;;;;;;;;;8.33;4.00;;;;;;;;5057078;28;45233;-78
2023/05/20 00:13:23;;;;;;;;;3.00;3.00;;;;;;;;5056632;28;45602;-78
2023/05/20 00:15:48;;;;;;;;;6.25;4.50;;;;;;;;5057679;28;45518;-78
2023/05/20 00:18:13;;;;;;;;;5.33;4.00;;;;;;;;5057922;28;45419;-78
2023/05/20 00:20:38;;;;;;;;;3.00;3.00;;;;;;;;5057771;28;45414;-78
2023/05/20 00:23:04;;;;;;;;;3.00;3.00;;;;;;;;5057598;28;46477;-77
2023/05/20 00:25:31;;;;;;;;;9.33;4.67;;;;;;;;5057131;28;45419;-78
2023/05/20 00:27:56;;;;;;;;;3.75;3.25;;;;;;;;5057497;28;45309;-78
2023/05/20 00:30:21;;;;;;;;;4.00;3.00;;;;;;;;5057575;28;45265;-78
2023/05/20 00:32:46;;;;;;;;;5.00;3.67;;;;;;;;5057317;28;46235;-78
2023/05/20 00:35:12;;;;;;;;;5.00;2.75;;;;;;;;5057321;28;45718;-78
2023/05/20 00:37:37;;;;;;;;;7.25;4.50;;;;;;;;5057314;28;45384;-78
2023/05/20 00:40:03;;;;;;;;;5.33;3.00;;;;;;;;5056912;28;45305;-78
2023/05/20 00:42:28;;;;;;;;;7.00;4.00;;;;;;;;5057063;28;46911;-78
2023/05/20 00:44:54;;;;;;;;;5.00;3.00;;;;;;;;5057249;28;45310;-78
2023/05/20 00:47:22;;;;;;;;;4.00;4.00;;;;;;;;5057268;28;45519;-78
2023/05/20 00:49:48;;;;;;;;;4.75;3.75;;;;;;;;5057194;28;45291;-78
2023/05/20 00:52:14;;;;;;;;;6.00;2.00;;;;;;;;5057087;28;46431;-78
2023/05/20 00:54:39;;;;;;;;;2.50;2.50;;;;;;;;5056717;28;45455;-78
2023/05/20 00:57:05;;;;;;;;;8.25;4.75;;;;;;;;5057085;28;45377;-78
2023/05/20 00:59:31;;;;;;;;;6.50;4.00;;;;;;;;5057080;28;45654;-78
2023/05/20 01:01:57;;;;;;;;;3.25;3.25;;;;;;;;5056815;28;46473;-78
2023/05/20 01:04:22;;;;;;;;;5.00;3.75;;;;;;;;5056896;28;45461;-79
2023/05/20 01:06:48;;;;;;;;;6.75;4.00;;;;;;;;5057057;28;45443;-78
2023/05/20 01:09:13;;;;;;;;;5.00;3.00;;;;;;;;5056552;28;45603;-78
2023/05/20 01:11:47;;;;;;;;;5.50;3.25;;;;;;;;5056569;28;45372;-78
2023/05/20 01:14:12;;;;;;;;;3.00;2.00;;;;;;;;5056512;28;45762;-78
2023/05/20 01:16:38;;;;;;;;;3.75;2.25;;;;;;;;5056822;28;45302;-78
2023/05/20 01:19:07;;;;;;;;;5.00;4.00;;;;;;;;5056839;28;45254;-78
2023/05/20 01:21:32;;;;;;;;;6.50;3.00;;;;;;;;5056397;28;46534;-78
2023/05/20 01:23:57;;;;;;;;;4.25;3.75;;;;;;;;5055813;28;45399;-78
2023/05/20 01:26:25;;;;;;;;;2.67;2.67;;;;;;;;5038597;28;45375;-78
2023/05/20 01:28:51;;;;;;;;;2.50;2.00;;;;;;;;5056578;28;45385;-78
2023/05/20 01:31:23;;;;;;;;;4.33;3.00;;;;;;;;5056411;28;45411;-78
2023/05/20 01:33:50;;;;;;;;;3.00;3.00;;;;;;;;5056339;28;45345;-77
2023/05/20 01:36:16;;;;;;;;;8.50;2.50;;;;;;;;5056496;28;45230;-78
2023/05/20 01:38:41;;;;;;;;;9.00;5.50;;;;;;;;5056006;28;45493;-77
2023/05/20 01:41:07;;;;;;;;;5.25;2.25;;;;;;;;5056211;28;46249;-78
2023/05/20 01:43:33;;;;;;;;;6.50;4.25;;;;;;;;5056482;28;45698;-78
2023/05/20 01:46:01;;;;;;;;;7.00;4.00;;;;;;;;5056134;28;45353;-77
2023/05/20 01:48:26;;;;;;;;;2.50;2.50;;;;;;;;5056447;28;45444;-78
2023/05/20 01:50:52;;;;;;;;;5.00;3.67;;;;;;;;5055904;28;46353;-81
2023/05/20 01:53:17;;;;;;;;;3.33;3.00;;;;;;;;5056051;28;45410;-78
2023/05/20 01:55:42;;;;;;;;;3.00;2.00;;;;;;;;5056230;28;45383;-78
2023/05/20 01:58:07;;;;;;;;;2.67;2.00;;;;;;;;5056130;28;45412;-78
2023/05/20 02:00:33;;;;;;;;;4.67;4.00;;;;;;;;5055984;28;46881;-78
2023/05/20 02:02:58;;;;;;;;;4.50;3.00;;;;;;;;5055838;28;45341;-78
2023/05/20 02:05:24;;;;;;;;;5.00;2.00;;;;;;;;5055848;28;45423;-77
2023/05/20 02:07:49;;;;;;;;;4.00;3.00;;;;;;;;5056106;28;45537;-78
2023/05/20 02:10:14;;;;;;;;;6.33;5.00;;;;;;;;5055790;28;46470;-77
2023/05/20 02:12:39;;;;;;;;;4.00;2.33;;;;;;;;5055602;28;45477;-78
2023/05/20 02:15:05;;;;;;;;;5.75;3.00;;;;;;;;5055974;28;45309;-78
2023/05/20 02:17:30;;;;;;;;;4.00;3.75;;;;;;;;5055891;28;45467;-78
2023/05/20 02:19:55;;;;;;;;;5.00;3.00;;;;;;;;5055293;28;46316;-78
2023/05/20 02:22:21;;;;;;;;;6.33;5.00;;;;;;;;5055854;28;45376;-78
2023/05/20 02:24:46;;;;;;;;;9.33;5.00;;;;;;;;5055905;28;45445;-78
2023/05/20 02:27:11;;;;;;;;;4.75;4.00;;;;;;;;5037560;28;45698;-77
2023/05/20 02:29:37;;;;;;;;;4.67;4.67;;;;;;;;5055644;28;46288;-78
2023/05/20 02:32:02;;;;;;;;;5.25;3.00;;;;;;;;5055531;28;45336;-77
2023/05/20 02:34:29;;;;;;;;;6.50;4.50;;;;;;;;5055485;28;45352;-78
2023/05/20 02:36:55;;;;;;;;;7.75;3.00;;;;;;;;5059184;28;45327;-78
2023/05/20 02:39:20;;;;;;;;;4.00;4.00;;;;;;;;5059241;28;47009;-77
2023/05/20 02:41:45;;;;;;;;;9.33;4.67;;;;;;;;5059169;28;45235;-77
2023/05/20 02:44:10;;;;;;;;;4.67;4.00;;;;;;;;5059216;28;45396;-78
2023/05/20 02:46:36;;;;;;;;;6.33;5.00;;;;;;;;5059332;28;45397;-77
2023/05/20 02:49:01;;;;;;;;;8.00;4.25;;;;;;;;5058802;28;46394;-78
2023/05/20 02:51:26;;;;;;;;;3.75;3.75;;;;;;;;5058991;28;45347;-77
2023/05/20 02:53:51;;;;;;;;;6.00;2.67;;;;;;;;5059183;28;45424;-78
2023/05/20 02:56:20;;;;;;;;;5.33;3.67;;;;;;;;5041029;28;45380;-78
2023/05/20 02:58:45;;;;;;;;;8.00;3.75;;;;;;;;5058815;28;46647;-77
2023/05/20 03:01:10;;;;;;;;;8.50;3.25;;;;;;;;5058769;28;45356;-77
2023/05/20 03:03:36;;;;;;;;;5.00;3.00;;;;;;;;5058657;28;45368;-78
2023/05/20 03:06:02;;;;;;;;;4.75;3.25;;;;;;;;5059030;28;45484;-78
2023/05/20 03:08:27;;;;;;;;;7.00;5.00;;;;;;;;5058787;28;45668;-77
2023/05/20 03:10:52;;;;;;;;;8.00;5.00;;;;;;;;5058773;28;45368;-78
2023/05/20 03:13:17;;;;;;;;;4.67;3.00;;;;;;;;5058608;28;45579;-77
2023/05/20 03:15:46;;;;;;;;;10.33;5.00;;;;;;;;5058892;28;45280;-77
2023/05/20 03:18:12;;;;;;;;;6.00;5.50;;;;;;;;5058152;28;45698;-77
2023/05/20 03:20:38;;;;;;;;;6.00;3.00;;;;;;;;5058596;28;45813;-77
2023/05/20 03:23:04;;;;;;;;;6.75;4.75;;;;;;;;5058710;28;45344;-78
2023/05/20 03:25:29;;;;;;;;;6.75;4.00;;;;;;;;5058471;28;45595;-78
2023/05/20 03:27:55;;;;;;;;;9.00;5.50;;;;;;;;5058092;28;46279;-77
2023/05/20 03:30:20;;;;;;;;;8.25;4.00;;;;;;;;5058392;28;45374;-78
2023/05/20 03:32:45;;;;;;;;;5.00;5.00;;;;;;;;5058181;28;45401;-78
2023/05/20 03:35:11;;;;;;;;;6.00;4.00;;;;;;;;5058425;28;45977;-78
2023/05/20 03:37:36;;;;;;;;;8.25;4.00;;;;;;;;5058326;28;45545;-77
2023/05/20 03:40:04;;;;;;;;;10.00;7.00;;;;;;;;5058256;28;45570;-78
2023/05/20 03:42:30;;;;;;;;;7.75;7.25;;;;;;;;5058269;28;45640;-77
2023/05/20 03:44:56;;;;;;;;;6.33;3.67;;;;;;;;5058259;28;45444;-78
2023/05/20 03:47:21;;;;;;;;;4.25;3.25;;;;;;;;5057420;28;46303;-78
2023/05/20 03:49:46;;;;;;;;;11.00;8.00;;;;;;;;5058054;28;45420;-78
2023/05/20 03:52:11;;;;;;;;;11.67;5.67;;;;;;;;5058343;28;45520;-78
2023/05/20 03:54:36;;;;;;;;;12.00;4.67;;;;;;;;5058037;28;45771;-77
2023/05/20 03:57:02;;;;;;;;;7.00;4.67;;;;;;;;5058054;28;45380;-77
2023/05/20 03:59:27;;;;;;;;;6.50;4.00;;;;;;;;5057912;28;45356;-77
2023/05/20 04:01:53;;;;;;;;;9.75;6.00;;;;;;;;5057620;28;45399;-78
2023/05/20 04:04:18;;;;;;;;;10.33;7.00;;;;;;;;5058103;28;45305;-78
2023/05/20 04:06:43;;;;;;;;;6.00;4.00;;;;;;;;5057619;28;46332;-77
2023/05/20 04:09:10;;;;;;;;;9.00;4.67;;;;;;;;5057785;28;45432;-77
2023/05/20 04:11:35;;;;;;;;;9.25;7.00;;;;;;;;5057953;28;45330;-77
2023/05/20 04:14:00;;;;;;;;;8.00;5.33;;;;;;;;5057538;28;45269;-78
2023/05/20 04:16:25;;;;;;;;;8.00;5.67;;;;;;;;5057087;28;45467;-77
2023/05/20 04:18:51;;;;;;;;;8.00;6.33;;;;;;;;5057545;28;45322;-78
2023/05/20 04:21:17;;;;;;;;;9.50;7.75;;;;;;;;5057678;28;45371;-78
2023/05/20 04:23:43;;;;;;;;;6.25;3.75;;;;;;;;5057771;28;45357;-78
2023/05/20 04:26:08;;;;;;;;;9.00;3.50;;;;;;;;5057425;28;46285;-77
2023/05/20 04:28:33;;;;;;;;;9.33;6.67;;;;;;;;5057514;28;45337;-77
2023/05/20 04:31:03;;;;;;;;;7.67;7.33;;;;;;;;5057279;28;45263;-77
2023/05/20 04:33:28;;;;;;;;;6.25;4.75;;;;;;;;5057602;28;45388;-77
2023/05/20 04:35:57;;;;;;;;;9.00;5.50;;;;;;;;5057424;28;45351;-78
2023/05/20 04:38:28;;;;;;;;;10.50;7.25;;;;;;;;5057331;28;45471;-78
2023/05/20 04:40:53;;;;;;;;;9.75;5.00;;;;;;;;5057449;28;45431;-78
2023/05/20 04:43:18;;;;;;;;;10.75;8.00;;;;;;;;5057336;28;45339;-77
2023/05/20 04:45:44;;;;;;;;;6.33;4.00;;;;;;;;5056746;28;45484;-77
2023/05/20 04:48:09;;;;;;;;;12.50;7.75;;;;;;;;5057091;28;45389;-77
2023/05/20 04:50:35;;;;;;;;;9.67;4.67;;;;;;;;5057366;28;45406;-78
2023/05/20 04:53:01;;;;;;;;;8.25;5.00;;;;;;;;5057224;28;45519;-77
2023/05/20 04:55:27;;;;;;;;;9.25;7.00;;;;;;;;5056934;28;45640;-78
2023/05/20 04:57:52;;;;;;;;;8.75;6.50;;;;;;;;5056200;28;45444;-77
2023/05/20 05:00:17;;;;;;;;;9.00;7.00;;;;;;;;5057048;28;45348;-77
2023/05/20 05:02:43;;;;;;;;;7.00;3.67;;;;;;;;5057070;28;45324;-78
2023/05/20 05:05:08;;;;;;;;;9.33;8.00;;;;;;;;5056750;28;46191;-78
2023/05/20 05:07:33;;;;;;;;;5.33;5.00;;;;;;;;5057035;28;45293;-78
2023/05/20 05:09:58;;;;;;;;;8.00;7.00;;;;;;;;5057009;28;45368;-78
2023/05/20 05:12:24;;;;;;;;;9.33;7.00;;;;;;;;5056968;28;45324;-78
2023/05/20 05:14:49;;;;;;;;;8.33;4.67;;;;;;;;5056406;28;45383;-78
2023/05/20 05:17:14;;;;;;;;;6.25;6.00;;;;;;;;5056695;28;45474;-78
2023/05/20 05:19:39;;;;;;;;;9.33;5.67;;;;;;;;5057033;28;45357;-78
2023/05/20 05:22:05;;;;;;;;;9.00;5.00;;;;;;;;5056938;28;45345;-78
2023/05/20 05:24:30;;;;;;;;;10.00;6.33;;;;;;;;5056466;28;45486;-78
2023/05/20 05:26:55;;;;;;;;;9.00;8.00;;;;;;;;5056642;28;45358;-78
2023/05/20 05:29:20;;;;;;;;;15.67;7.00;;;;;;;;5056307;28;45504;-78
2023/05/20 05:31:45;;;;;;;;;7.67;6.00;;;;;;;;5056784;28;45357;-77
2023/05/20 05:34:11;;;;;;;;;10.00;6.33;;;;;;;;5056555;28;45363;-77
2023/05/20 05:36:38;;;;;;;;;8.33;5.33;;;;;;;;5056479;28;45614;-78
2023/05/20 05:39:03;;;;;;;;;12.25;6.50;;;;;;;;5056410;28;45657;-77
2023/05/20 05:41:28;;;;;;;;;7.33;5.00;;;;;;;;5056508;28;46028;-78
2023/05/20 05:43:54;;;;;;;;;10.00;7.33;;;;;;;;5055724;28;47361;-77
2023/05/20 05:46:19;;;;;;;;;9.00;5.00;;;;;;;;5056104;28;45441;-78
2023/05/20 05:48:47;;;;;;;;;9.25;5.00;;;;;;;;5056566;28;45531;-77
2023/05/20 05:51:13;;;;;;;;;11.50;8.00;;;;;;;;5056410;28;45383;-77
2023/05/20 05:53:38;;;;;;;;;10.00;8.25;;;;;;;;5056394;28;45658;-77
2023/05/20 05:56:03;;;;;;;;;9.00;6.33;;;;;;;;5056322;28;45377;-77
2023/05/20 05:58:28;;;;;;;;;6.75;4.00;;;;;;;;5055886;28;45385;-77
2023/05/20 06:00:54;;;;;;;;;13.67;6.33;;;;;;;;5056170;28;45412;-77
2023/05/20 06:03:19;;;;;;;;;7.00;6.67;;;;;;;;5056038;28;46181;-78
2023/05/20 06:05:45;;;;;;;;;7.33;5.67;;;;;;;;5055993;28;45256;-77
2023/05/20 06:08:11;;;;;;;;;12.75;5.75;;;;;;;;5056142;28;45320;-78
2023/05/20 06:10:36;;;;;;;;;7.33;6.00;;;;;;;;5055977;28;45322;-78
2023/05/20 06:13:01;;;;;;;;;8.00;6.00;;;;;;;;5055553;28;45521;-77
2023/05/20 06:15:26;;;;;;;;;8.00;5.33;;;;;;;;5055859;28;45257;-77
2023/05/20 06:17:51;;;;;;;;;8.00;5.00;;;;;;;;5056090;28;45407;-77
2023/05/20 06:20:16;;;;;;;;;8.33;5.33;;;;;;;;5055963;28;45517;-78
2023/05/20 06:22:42;;;;;;;;;9.67;6.00;;;;;;;;5055758;28;45359;-77
2023/05/20 06:25:08;;;;;;;;;9.00;6.00;;;;;;;;5055690;28;45318;-78
2023/05/20 06:27:33;;;;;;;;;13.00;6.00;;;;;;;;5055598;28;45286;-78
2023/05/20 06:29:58;;;;;;;;;5.67;5.00;;;;;;;;5055873;28;45395;-78
2023/05/20 06:32:23;;;;;;;;;9.75;6.00;;;;;;;;5055535;28;46425;-78
2023/05/20 06:34:49;;;;;;;;;6.00;6.00;;;;;;;;5055821;28;45407;-77
2023/05/20 06:37:14;;;;;;;;;11.00;5.00;;;;;;;;5055790;28;45348;-77
2023/05/20 06:39:39;;;;;;;;;12.67;6.00;;;;;;;;5055579;28;45380;-78
2023/05/20 06:42:04;;;;;;;;;11.00;6.75;;;;;;;;5055161;28;46099;-78
2023/05/20 06:44:30;;;;;;;;;7.33;5.33;;;;;;;;5055531;28;45356;-78
2023/05/20 06:46:55;;;;;;;;;8.50;5.75;;;;;;;;5055664;28;45290;-77
2023/05/20 06:49:20;;;;;;;;;8.00;7.33;;;;;;;;5055598;28;45250;-77
2023/05/20 06:51:45;;;;;;;;;5.33;5.33;;;;;;;;5055293;28;45374;-77
2023/05/20 06:54:10;;;;;;;;;10.00;8.00;;;;;;;;5055351;28;45334;-78
2023/05/20 06:56:36;;;;;;;;;9.67;5.67;;;;;;;;5055298;28;45356;-77
2023/05/20 06:59:01;;;;;;;;;10.00;8.67;;;;;;;;5055324;28;45399;-77
2023/05/20 07:01:26;;;;;;;;;8.33;7.00;;;;;;;;5055162;28;46191;-77
2023/05/20 07:03:51;;;;;;;;;10.67;5.33;;;;;;;;5055344;28;45294;-77
2023/05/20 07:06:16;;;;;;;;;11.00;7.33;;;;;;;;5055367;28;45315;-77
2023/05/20 07:08:42;;;;;;;;;8.33;4.33;;;;;;;;5055308;28;45328;-77
2023/05/20 07:11:07;;;;;;;;;9.00;5.67;;;;;;;;5054725;28;47005;-77
2023/05/20 07:13:32;;;;;;;;;7.67;6.00;;;;;;;;5054882;28;45557;-77
2023/05/20 07:15:57;;;;;;;;;9.67;6.00;;;;;;;;5055306;28;45858;-77
2023/05/20 07:18:22;;;;;;;;;12.33;6.00;;;;;;;;5055178;28;45493;-77
2023/05/20 07:20:48;;;;;;;;;6.33;6.33;;;;;;;;5055406;28;46239;-78
2023/05/20 07:23:13;;;;;;;;;13.67;6.33;;;;;;;;5058675;28;45566;-77
2023/05/20 07:25:38;;;;;;;;;9.00;6.67;;;;;;;;5058422;28;45913;-77
2023/05/20 07:28:03;;;;;;;;;12.67;6.33;;;;;;;;5058685;28;45266;-77
2023/05/20 07:30:28;;;;;;;;;7.50;5.00;;;;;;;;5058423;28;45393;-77
2023/05/20 07:32:54;;;;;;;;;6.00;5.00;;;;;;;;5058535;28;45372;-77
2023/05/20 07:35:19;;;;;;;;;7.67;6.67;;;;;;;;5058508;28;45479;-77
2023/05/20 07:37:44;;;;;;;;;9.25;5.50;;;;;;;;5058455;28;45358;-77
2023/05/20 07:40:10;;;;;;;;;7.67;6.67;;;;;;;;5057987;28;45449;-77
2023/05/20 07:42:35;;;;;;;;;12.25;7.50;;;;;;;;5058185;28;45404;-77
2023/05/20 07:45:00;;;;;;;;;12.33;7.00;;;;;;;;5058251;28;45294;-77
2023/05/20 07:47:25;;;;;;;;;12.00;6.67;;;;;;;;5058220;28;45573;-77
2023/05/20 07:49:50;;;;;;;;;8.75;6.50;;;;;;;;5057992;28;47204;-78
2023/05/20 07:52:16;;;;;;;;;10.25;5.25;;;;;;;;5057986;28;45349;-77
2023/05/20 07:54:41;;;;;;;;;10.33;6.33;;;;;;;;5058013;28;45449;-78
2023/05/20 07:57:06;;;;;;;;;14.25;6.75;;;;;;;;5058342;28;45617;-77
2023/05/20 07:59:32;;;;;;;;;8.25;6.75;;;;;;;;5057869;28;45465;-77
2023/05/20 08:01:57;;;;;;;;;7.00;5.67;;;;;;;;5039834;28;45431;-77
2023/05/20 08:04:22;;;;;;;;;6.67;6.00;;;;;;;;5057969;28;45368;-77
2023/05/20 08:06:48;;;;;;;;;10.75;8.25;;;;;;;;5057774;28;45495;-77
2023/05/20 08:09:14;;;;;;;;;7.75;4.75;;;;;;;;5057489;28;46134;-77
2023/05/20 08:11:39;;;;;;;;;8.00;6.00;;;;;;;;5057768;28;45668;-77
2023/05/20 08:14:05;;;;;;;;;6.00;6.00;;;;;;;;5057665;28;45377;-78
2023/05/20 08:16:30;;;;;;;;;6.25;4.25;;;;;;;;5057925;28;45345;-77
2023/05/20 08:18:55;;;;;;;;;7.67;3.00;;;;;;;;5057679;28;45347;-78
2023/05/20 08:21:20;;;;;;;;;7.00;6.00;;;;;;;;5057551;28;45456;-78
2023/05/20 08:23:46;;;;;;;;;9.33;6.00;;;;;;;;5057541;28;45554;-78
2023/05/20 08:26:11;;;;;;;;;6.33;5.00;;;;;;;;5057678;28;45441;-78
2023/05/20 08:28:36;;;;;;;;;8.33;4.00;;;;;;;;5057435;28;45302;-77
2023/05/20 08:31:02;;;;;;;;;11.50;6.00;;;;;;;;5057275;28;45404;-75
2023/05/20 08:33:27;;;;;;;;;10.00;7.50;;;;;;;;5056483;28;45257;-77
2023/05/20 08:35:52;;;;;;;;;6.00;6.00;;;;;;;;5057734;28;45428;-78
2023/05/20 08:38:18;;;;;;;;;7.67;6.00;;;;;;;;5056961;28;46199;-78
2023/05/20 08:40:43;;;;;;;;;7.00;5.00;;;;;;;;5057318;28;45459;-77
2023/05/20 08:43:08;;;;;;;;;5.00;5.00;;;;;;;;5057577;28;45427;-77
2023/05/20 08:45:35;;;;;;;;;7.50;6.00;;;;;;;;5057056;28;45370;-78
2023/05/20 08:48:01;;;;;;;;;9.00;6.25;;;;;;;;5057212;28;45670;-77
2023/05/20 08:50:26;;;;;;;;;6.25;5.00;;;;;;;;5057187;28;45625;-78
2023/05/20 08:52:52;;;;;;;;;7.67;4.33;;;;;;;;5057088;28;45363;-77
2023/05/20 08:55:21;;;;;;;;;5.50;5.50;;;;;;;;5057288;28;45404;-78
2023/05/20 08:57:47;;;;;;;;;7.00;5.25;;;;;;;;5057124;28;46505;-78
2023/05/20 09:00:15;;;;;;;;;5.00;4.00;;;;;;;;5056963;28;45461;-78
2023/05/20 09:02:40;;;;;;;;;7.00;2.50;;;;;;;;5057089;28;45457;-77
2023/05/20 09:05:06;;;;;;;;;5.00;3.00;;;;;;;;5057207;28;45364;-78
2023/05/20 09:07:32;;;;;;;;;4.00;3.00;;;;;;;;5056538;28;45949;-77
2023/05/20 09:09:57;;;;;;;;;3.67;3.00;;;;;;;;5056859;28;45463;-78
2023/05/20 09:12:22;;;;;;;;;5.75;3.00;;;;;;;;5056792;28;45384;-77
2023/05/20 09:14:47;;;;;;;;;3.00;3.00;;;;;;;;5056870;28;45405;-77
2023/05/20 09:17:13;;;;;;;;;6.50;4.50;;;;;;;;5056752;28;45280;-77
2023/05/20 09:19:38;;;;;;;;;3.00;3.00;;;;;;;;5056796;28;45312;-77
2023/05/20 09:22:04;;;;;;;;;5.50;3.75;;;;;;;;5056579;28;45366;-78
2023/05/20 09:24:29;;;;;;;;;6.25;3.00;;;;;;;;5056800;28;45433;-77
2023/05/20 09:26:55;;;;;;;;;5.00;4.00;;;;;;;;5056527;28;47145;-77
2023/05/20 09:29:20;;;;;;;;;5.25;3.25;;;;;;;;5056526;28;45312;-77
2023/05/20 09:31:45;;;;;;;;;5.00;4.00;;;;;;;;5056770;28;45361;-77
2023/05/20 09:34:11;;;;;;;;;5.00;3.25;;;;;;;;5056631;28;45432;-77
2023/05/20 09:36:38;;;;;;;;;2.00;2.00;;;;;;;;5056040;28;46251;-77
2023/05/20 09:39:06;;;;;;;;;5.00;4.00;;;;;;;;5056384;28;45775;-77
2023/05/20 09:41:38;;;;;;;;;6.00;4.00;;;;;;;;5056548;28;45325;-77
2023/05/20 09:44:05;;;;;;;;;5.00;4.00;;;;;;;;5056173;28;45510;-77
2023/05/20 09:46:31;;;;;;;;;3.25;2.75;;;;;;;;5056097;28;46425;-77
2023/05/20 09:48:57;;;;;;;;;5.25;4.00;;;;;;;;5056114;28;45834;-78
2023/05/20 09:51:22;;;;;;;;;3.75;3.00;;;;;;;;5056129;28;45297;-77
2023/05/20 09:53:49;;;;;;;;;3.33;3.33;;;;;;;;5056441;28;45294;-77
2023/05/20 09:56:14;;;;;;;;;3.75;3.00;;;;;;;;5056135;28;45430;-77
2023/05/20 09:58:41;;;;;;;;;4.00;3.67;;;;;;;;5056087;28;45614;-77
2023/05/20 10:01:06;;;;;;;;;5.75;4.00;;;;;;;;5038138;28;45363;-78
2023/05/20 10:03:32;;;;;;;;;5.50;3.75;;;;;;;;5056343;28;45493;-77
2023/05/20 10:06:09;;;;;;;;;3.75;3.00;;;;;;;;5055644;28;45387;-77
2023/05/20 10:08:52;;;;;;;;;5.75;4.25;;;;;;;;5056070;28;45849;-78
2023/05/20 10:11:34;;;;;;;;;6.50;3.75;;;;;;;;5055975;28;45326;-78
2023/05/20 10:14:18;;;;;;;;;4.00;3.00;;;;;;;;5055991;28;45457;-78
2023/05/20 10:16:49;;;;;;;;;5.25;4.00;;;;;;;;5055864;28;45411;-78
2023/05/20 10:19:24;;;;;;;;;4.00;2.00;;;;;;;;5037360;28;46228;-78
2023/05/20 10:21:56;;;;;;;;;3.00;3.00;;;;;;;;5056036;28;45379;-78
2023/05/20 10:24:28;;;;;;;;;6.50;2.00;;;;;;;;5055932;28;45356;-78
2023/05/20 10:26:54;;;;;;;;;5.25;3.00;;;;;;;;5055621;28;47248;-78
2023/05/20 10:29:21;;;;;;;;;4.25;2.25;;;;;;;;5055805;28;45376;-78
2023/05/20 10:31:50;;;;;;;;;6.25;3.50;;;;;;;;5037731;28;45487;-78
2023/05/20 10:34:19;;;;;;;;;5.00;3.00;;;;;;;;5055512;28;45314;-79
2023/05/20 10:36:53;;;;;;;;;4.00;2.00;;;;;;;;5055503;28;46386;-77
2023/05/20 10:39:18;;;;;;;;;4.00;4.00;;;;;;;;5055514;28;45763;-78
2023/05/20 10:41:44;;;;;;;;;3.00;3.00;;;;;;;;5055652;28;45400;-78
2023/05/20 10:44:09;;;;;;;;;2.50;2.50;;;;;;;;5055526;28;45360;-77
2023/05/20 10:46:34;;;;;;;;;3.00;2.33;;;;;;;;5055505;28;46297;-78
2023/05/20 10:49:03;;;;;;;;;5.50;3.00;;;;;;;;5055348;28;45519;-78
2023/05/20 10:51:30;;;;;;;;;4.00;4.00;;;;;;;;5055578;28;45554;-78
2023/05/20 10:53:56;;;;;;;;;4.25;3.00;;;;;;;;5055524;28;45457;-78
2023/05/20 10:56:22;;;;;;;;;2.25;2.00;;;;;;;;5056676;28;45578;-78
2023/05/20 10:58:48;;;;;;;;;8.25;4.00;;;;;;;;5058865;28;45388;-78
2023/05/20 11:01:15;;;;;;;;;2.50;2.50;;;;;;;;5059091;28;45412;-78
2023/05/20 11:03:40;;;;;;;;;5.00;3.75;;;;;;;;5058685;28;45345;-78
2023/05/20 11:06:16;;;;;;;;;4.50;4.00;;;;;;;;5058873;28;45322;-77
2023/05/20 11:08:41;;;;;;;;;3.00;3.00;;;;;;;;5058863;28;45740;-78
2023/05/20 11:11:07;;;;;;;;;4.00;3.00;;;;;;;;5058896;28;45469;-77
2023/05/20 11:13:32;;;;;;;;;2.50;2.50;;;;;;;;5058847;28;45467;-78
2023/05/20 11:15:58;;;;;;;;;5.50;4.00;;;;;;;;5058423;28;45415;-78
2023/05/20 11:18:25;;;;;;;;;2.50;2.50;;;;;;;;5058291;28;45295;-78
2023/05/20 11:20:52;;;;;;;;;4.50;2.00;;;;;;;;5058846;28;45439;-78
2023/05/20 11:23:18;;;;;;;;;1.50;1.50;;;;;;;;5058535;28;45379;-79
2023/05/20 11:25:43;;;;;;;;;0.50;0.50;;;;;;;;5040377;28;47830;-78
2023/05/20 11:28:11;;;;;;;;;2.00;1.67;;;;;;;;5058605;28;45348;-78
2023/05/20 11:30:36;;;;;;;;;3.75;0.75;;;;;;;;5058475;28;45414;-78
2023/05/20 11:33:02;;;;;;;;;3.67;2.00;;;;;;;;5058414;28;45438;-78
2023/05/20 11:35:29;;;;;;;;;1.50;1.50;;;;;;;;5058349;28;45634;-78
2023/05/20 11:37:55;;;;;;;;;2.75;2.75;;;;;;;;5058382;28;45427;-78
2023/05/20 11:40:22;;;;;;;;;3.00;2.00;;;;;;;;5040223;28;45375;-78
2023/05/20 11:42:48;;;;;;;;;2.00;2.00;;;;;;;;5058461;28;45528;-78
2023/05/20 11:45:13;;;;;;;;;3.00;1.00;;;;;;;;5057916;28;46509;-79
2023/05/20 11:47:38;;;;;;;;;2.00;2.00;;;;;;;;5058052;28;45333;-78
2023/05/20 11:50:04;;;;;;;;;4.00;3.00;;;;;;;;5040180;28;45538;-78
2023/05/20 11:52:32;;;;;;;;;1.00;1.00;;;;;;;;5058172;28;45565;-78
2023/05/20 11:54:57;;;;;;;;;3.25;0.75;;;;;;;;5058206;28;45440;-78
2023/05/20 11:57:22;;;;;;;;;2.00;2.00;;;;;;;;5058127;28;45321;-79
2023/05/20 11:59:48;;;;;;;;;5.00;1.00;;;;;;;;5058153;28;45309;-78
2023/05/20 12:02:13;;;;;;;;;1.50;1.50;;;;;;;;5057699;28;45389;-79
2023/05/20 12:04:38;;;;;;;;;2.00;1.67;;;;;;;;5057865;28;45451;-78
2023/05/20 12:07:08;;;;;;;;;3.00;3.00;;;;;;;;5039821;28;45360;-79
2023/05/20 12:09:33;;;;;;;;;3.25;1.00;;;;;;;;5058003;28;45412;-79
2023/05/20 12:11:58;;;;;;;;;3.33;2.00;;;;;;;;5057862;28;45353;-79
2023/05/20 12:14:23;;;;;;;;;2.00;0.67;;;;;;;;5057513;28;45565;-79
2023/05/20 12:16:48;;;;;;;;;2.00;0.33;;;;;;;;5057614;28;45594;-79
2023/05/20 12:19:14;;;;;;;;;2.00;1.00;;;;;;;;5057813;28;45343;-79
2023/05/20 12:21:39;;;;;;;;;3.67;2.00;;;;;;;;5057735;28;45482;-79
2023/05/20 12:24:05;;;;;;;;;1.25;1.25;;;;;;;;5057634;28;46943;-78
2023/05/20 12:26:31;;;;;;;;;1.00;1.00;;;;;;;;5057699;28;45309;-79
2023/05/20 12:28:57;;;;;;;;;1.50;1.50;;;;;;;;5057524;28;45433;-79
2023/05/20 12:31:22;;;;;;;;;1.67;1.00;;;;;;;;5057827;28;45322;-79
2023/05/20 12:33:47;;;;;;;;;3.67;1.33;;;;;;;;5039362;28;46676;-79
2023/05/20 12:36:12;;;;;;;;;1.00;1.00;;;;;;;;5057608;28;45531;-79
2023/05/20 12:38:38;;;;;;;;;2.50;1.25;;;;;;;;5057463;28;45697;-79
2023/05/20 12:41:03;;;;;;;;;0.75;0.75;;;;;;;;5057491;28;45353;-79
2023/05/20 12:43:28;;;;;;;;;0.00;0.00;;;;;;;;5057131;28;46551;-78
2023/05/20 12:45:54;;;;;;;;;1.33;1.33;;;;;;;;5057319;28;45339;-79
2023/05/20 12:48:19;;;;;;;;;1.50;1.00;;;;;;;;5057529;28;45415;-79
2023/05/20 12:50:44;;;;;;;;;1.00;1.00;;;;;;;;5057311;28;45440;-79
2023/05/20 12:53:09;;;;;;;;;0.00;0.00;;;;;;;;5057043;28;46206;-79
2023/05/20 12:55:35;;;;;;;;;1.50;0.00;;;;;;;;5057162;28;45341;-79
2023/05/20 12:58:00;;;;;;;;;1.33;1.33;;;;;;;;5057167;28;45407;-79
2023/05/20 13:00:25;;;;;;;;;3.67;2.00;;;;;;;;5057141;28;45425;-79
2023/05/20 13:02:51;;;;;;;;;1.50;1.00;;;;;;;;5056977;28;45327;-78
2023/05/20 13:05:17;;;;;;;;;2.75;1.00;;;;;;;;5056898;28;45290;-78
2023/05/20 13:07:42;;;;;;;;;1.00;1.00;;;;;;;;5057186;28;45629;-78
2023/05/20 13:10:09;;;;;;;;;2.00;1.00;;;;;;;;5057071;28;45396;-78
2023/05/20 13:12:34;;;;;;;;;0.50;0.50;;;;;;;;5056488;28;45407;-78
2023/05/20 13:14:59;;;;;;;;;1.00;1.00;;;;;;;;5056904;28;45376;-78
2023/05/20 13:17:26;;;;;;;;;1.00;1.00;;;;;;;;5056984;28;45495;-78
2023/05/20 13:19:51;;;;;;;;;3.00;1.00;;;;;;;;5056083;28;45515;-78
2023/05/20 13:22:16;;;;;;;;;2.67;0.00;;;;;;;;5056854;28;46587;-78
2023/05/20 13:24:41;;;;;;;;;5.00;3.00;;;;;;;;5056806;28;45273;-78
2023/05/20 13:27:07;;;;;;;;;2.00;2.00;;;;;;;;5056709;28;45384;-78
2023/05/20 13:29:32;;;;;;;;;1.75;1.75;;;;;;;;5056683;28;45356;-78
2023/05/20 13:31:57;;;;;;;;;3.00;2.00;;;;;;;;5056566;28;46476;-78
2023/05/20 13:34:22;;;;;;;;;3.33;2.00;;;;;;;;5056571;28;45324;-78
2023/05/20 13:36:47;;;;;;;;;3.67;1.33;;;;;;;;5056735;28;45229;-78
2023/05/20 13:39:16;;;;;;;;;2.00;2.00;;;;;;;;5056517;28;45436;-78
2023/05/20 13:41:41;;;;;;;;;4.75;1.50;;;;;;;;5056031;28;45326;-78
2023/05/20 13:44:06;;;;;;;;;2.00;1.50;;;;;;;;5056404;28;45384;-79
2023/05/20 13:46:32;;;;;;;;;1.33;1.33;;;;;;;;5056365;28;45286;-77
2023/05/20 13:48:57;;;;;;;;;1.00;1.00;;;;;;;;5056423;28;45285;-78
2023/05/20 13:51:22;;;;;;;;;1.67;1.67;;;;;;;;5056235;28;45538;-78
2023/05/20 13:53:47;;;;;;;;;3.00;2.00;;;;;;;;5056219;28;45436;-78
2023/05/20 13:56:12;;;;;;;;;1.67;1.67;;;;;;;;5056085;28;45332;-78
2023/05/20 13:58:38;;;;;;;;;2.00;2.00;;;;;;;;5038320;28;45381;-78
2023/05/20 14:01:03;;;;;;;;;1.33;1.33;;;;;;;;5056026;28;45938;-78
2023/05/20 14:03:32;;;;;;;;;1.25;1.00;;;;;;;;5056064;28;45462;-78
2023/05/20 14:05:57;;;;;;;;;2.75;2.00;;;;;;;;5056160;28;45377;-78
2023/05/20 14:08:22;;;;;;;;;2.00;2.00;;;;;;;;5056200;28;45207;-78
2023/05/20 14:10:48;;;;;;;;;2.67;2.67;;;;;;;;5055643;28;45313;-79
2023/05/20 14:13:13;;;;;;;;;2.00;1.25;;;;;;;;5055698;28;45577;-78
2023/05/20 14:15:38;;;;;;;;;2.00;2.00;;;;;;;;5055993;28;45333;-79
2023/05/20 14:18:03;;;;;;;;;3.00;1.00;;;;;;;;5056127;28;45505;-78
2023/05/20 14:20:29;;;;;;;;;3.00;2.00;;;;;;;;5055579;28;46522;-78
2023/05/20 14:22:54;;;;;;;;;1.00;1.00;;;;;;;;5055926;28;45290;-78
2023/05/20 14:25:20;;;;;;;;;3.00;2.00;;;;;;;;5055487;28;45344;-78
2023/05/20 14:27:45;;;;;;;;;1.75;1.75;;;;;;;;5055953;28;45318;-78
2023/05/20 14:30:10;;;;;;;;;2.00;2.00;;;;;;;;5054921;28;45619;-78
2023/05/20 14:32:35;;;;;;;;;1.00;1.00;;;;;;;;5055062;28;45452;-78